La Porte, Indiana
Current Conditions -  °F | °C
As of 6:15 AM on Saturday 20 Dec 2014 (Local Time) from KPPO Reporting Station
Overcast Overcast  
Wind Chill: 32°   Ceiling: 2300
Heat Index: 32°   Visibility: 10mi
Dew Point: 26°   Wind: 3mph
Humidity: 78%   Direction: 240°WSW
Pressure: 30.28"   Gusts: NA
Location:  41.61°N, 86.72°W
Report Text: KPPO 201215Z AUTO 24003KT 10SM OVC023 00/M03 A3028 RMK AO2 T00001035
Loading
Personal Weather Stations






























Interactive Weather Map New forecast layout! Learn more

10-Day Weather Forecast

Advertisements
Track Severe Weather on mobile